August 18, 2022

Time Code Weather Temp. Visibility Ceiling Wind METAR/SPECI
3:00 pm
V
79 °F 15 mi 24,000 ft 340° 340° 4 - 16 kt METAR CYND 181900Z 34004G16KT 15SM FEW032 BKN240 26/14 A2983 RMK CU1CI6 CU TR SLP104 DENSITY ALT 1700FT
2:00 pm
V
77 °F 15 mi 24,000 ft 340° 340° 5 kt METAR CYND 181800Z 34005KT 300V360 15SM FEW035 BKN240 25/15 A2984 RMK CU1CI6 CU TR SLP107 DENSITY ALT 1600FT
1:00 pm
V
75 °F 15 mi 22,000 ft 340° 340° 9 kt METAR CYND 181700Z 34009KT 15SM FEW040 FEW160 BKN220 24/14 A2985 RMK CU1AC2CI5 CU TR SLP109 DENSITY ALT 1400FT
12:00 pm
V
73 °F 15 mi 22,000 ft 310° 310° 5 kt METAR CYND 181600Z 31005KT 290V350 15SM FEW160 BKN220 23/15 A2986 RMK AC2CI5 SLP112 DENSITY ALT 1300FT
11:00 am
V
75 °F 15 mi 22,000 ft Var Var 3 kt METAR CYND 181500Z VRB03KT 15SM SCT160 BKN220 24/16 A2986 RMK AC4CI3 SLP113 DENSITY ALT 1400FT
10:00 am
V
70 °F 15 mi 22,000 ft 300° 300° 4 kt METAR CYND 181400Z 30004KT 15SM FEW160 BKN220 21/17 A2987 RMK AC2CI5 SLP116 DENSITY ALT 1100FT
9:00 am
V
66 °F 15 mi 22,000 ft 270° 270° 4 kt METAR CYND 181300Z 27004KT 15SM FEW160 OVC220 19/17 A2988 RMK AC2CI6 SLP120 DENSITY ALT 800FT
8:00 am
V
63 °F 15 mi 22,000 ft 270° 270° 5 kt METAR CYND 181200Z 27005KT 15SM FEW050 FEW170 BKN220 17/16 A2989 RMK SC1AC2CI5 SC TR SLP122 DENSITY ALT 600FT
7:00 am
V
61 °F 15 mi 22,000 ft Var 000° 0 kt METAR CYND 181100Z 00000KT 15SM FEW140 BKN220 16/16 A2989 RMK AC2CI5 SLP125 DENSITY ALT 500FT

August 17, 2022

Time Code Weather Temp. Visibility Ceiling Wind METAR/SPECI
9:00 pm
V
64 °F 15 mi 13,000 ft Var Var 2 kt METAR CYND 180100Z VRB02KT 15SM SCT100 BKN130 18/17 A3000 RMK AC3AC2 LAST STFD OBS/NXT 181100Z SLP163 DENSITY ALT 600FT
8:00 pm
V
66 °F 15 mi 19,000 ft 360° 360° 3 kt METAR CYND 180000Z 36003KT 350V160 15SM SCT120 BKN190 BKN220 19/17 A3000 RMK AC4AC2CI1 SLP162 DENSITY ALT 600FT
7:00 pm
V
66 °F 15 mi 15,000 ft 340° 340° 6 kt METAR CYND 172300Z 34006KT 15SM FEW100 BKN150 BKN220 19/18 A3002 RMK AC2AC3CI2 SLP167 DENSITY ALT 700FT
6:00 pm
V
66 °F 15 mi 11,000 ft Var Var 2 kt METAR CYND 172200Z VRB02KT 15SM SCT070TCU BKN110 BKN250 19/17 A3003 RMK TCU3AC3CI1 SLP173 DENSITY ALT 700FT
5:12 pm
V
66 °F 15 mi 7,500 ft 280° 280° 7 kt METAR CYND 172112Z 28007KT 270V010 15SM -SHRA BKN075TCU OVC100 19/18 A3005 RMK TCU6AC2 SLP177 DENSITY ALT 600FT
5:00 pm
V
68 °F 10 mi 10,000 ft 030° 030° 6 kt METAR CYND 172100Z 03006KT 010V110 10SM -TSRA SCT070CB BKN100 BKN250 20/17 A3004 RMK CB4AC2CI1 SLP176 DENSITY ALT 700FT
4:36 pm
V
70 °F 10 mi 7,000 ft 040° 040° 12 - 20 kt METAR CYND 172036Z 04012G20KT 010V070 10SM -TSRA BKN070CB BKN120 21/16 A3003 RMK CB6AC1 SLP173 DENSITY ALT 900FT
4:00 pm
V
77 °F 15 mi 12,000 ft 090° 090° 10 - 15 kt METAR CYND 172000Z 09010G15KT 15SM SCT040TCU BKN120 BKN250 25/17 A3002 RMK TCU4AC2CI1 SLP168 DENSITY ALT 1300FT
3:00 pm
V
81 °F 15 mi 25,000 ft 120° 120° 8 kt METAR CYND 171900Z 12008KT 080V150 15SM SCT055TCU SCT110 BKN250 27/13 A3003 RMK TCU3AC1CI3 DIST SH W AND SE SLP171 DENSITY ALT 1600FT
2:00 pm
V
81 °F 15 mi 25,000 ft 130° 130° 6 kt METAR CYND 171800Z 13006KT 15SM FEW055 SCT130 BKN250 27/14 A3005 RMK CU2AC1CI4 SLP176 DENSITY ALT 1600FT
1:00 pm
V
81 °F 15 mi 25,000 ft 130° 130° 10 kt METAR CYND 171700Z 13010KT 15SM FEW050 FEW130 BKN250 27/14 A3007 RMK CU1AC1CI5 SLP183 DENSITY ALT 1500FT
12:00 pm
V
79 °F 15 mi 25,000 ft 090° 090° 4 kt METAR CYND 171600Z 09004KT 050V210 15SM FEW035 FEW140 BKN250 26/16 A3008 RMK CU1AC1CI6 CU TR SLP190 DENSITY ALT 1400FT
11:00 am
V
75 °F 15 mi 25,000 ft 060° 060° 4 kt METAR CYND 171500Z 06004KT 350V090 15SM FEW140 BKN250 24/16 A3010 RMK AC1CI5 SLP195 DENSITY ALT 1200FT
10:00 am
V
73 °F 15 mi 25,000 ft 030° 030° 4 kt METAR CYND 171400Z 03004KT 330V060 15SM FEW140 BKN250 23/15 A3011 RMK AC2CI4 SLP199 DENSITY ALT 1000FT
9:00 am
V
70 °F 15 mi 25,000 ft 050° 050° 3 kt METAR CYND 171300Z 05003KT 15SM FEW140 BKN250 21/14 A3012 RMK AC2CI4 SLP202 DENSITY ALT 700FT
8:00 am
V
66 °F 15 mi 25,000 ft Var 000° 0 kt METAR CYND 171200Z 00000KT 15SM SCT140 BKN250 19/14 A3012 RMK AC3CI4 SLP203 DENSITY ALT 600FT
7:00 am
V
63 °F 15 mi 21,000 ft Var Var 2 kt METAR CYND 171100Z VRB02KT 15SM SCT140 BKN210 BKN250 17/13 A3012 RMK AC3CI3CI1 SLP201 DENSITY ALT 300FT

August 16, 2022

Time Code Weather Temp. Visibility Ceiling Wind METAR/SPECI
9:00 pm
V
72 °F 15 mi 24,000 ft 050° 050° 5 kt METAR CYND 170100Z 05005KT 15SM FEW040 FEW090 BKN240 22/16 A3010 RMK SC1AC1CI5 SC TR LAST STFD OBS/NXT 171100Z SLP196 DENSITY ALT 900FT
8:00 pm
V
75 °F 15 mi 25,000 ft 040° 040° 3 kt METAR CYND 170000Z 04003KT 15SM FEW040 FEW100 BKN250 24/17 A3008 RMK CU1AC1CI5 CU TR SLP190 DENSITY ALT 1100FT
7:00 pm
V
79 °F 15 mi 25,000 ft 080° 080° 4 kt METAR CYND 162300Z 08004KT 15SM FEW050 BKN250 26/16 A3008 RMK CU1CI7 CU TR SLP189 DENSITY ALT 1400FT
6:00 pm
V
81 °F 15 mi 25,000 ft 080° 080° 5 kt METAR CYND 162200Z 08005KT 15SM FEW050 BKN250 27/16 A3007 RMK CU1CI7 CU TR SLP186 DENSITY ALT 1500FT
5:00 pm
V
81 °F 15 mi 25,000 ft 100° 100° 7 kt METAR CYND 162100Z 10007KT 15SM FEW050 BKN250 27/15 A3008 RMK CU1CI6 SLP187 DENSITY ALT 1500FT
4:00 pm
V
79 °F 15 mi 25,000 ft 360° 360° 9 kt METAR CYND 162000Z 36009KT 15SM FEW040 BKN250 26/16 A3008 RMK CU2CI5 SLP187 DENSITY ALT 1400FT
3:00 pm
V
73 °F 15 mi 24,000 ft 010° 010° 9 kt METAR CYND 161900Z 01009KT 15SM SCT050TCU SCT110 BKN240 23/14 A3009 RMK TCU3AC1CI2 DIST SH NW SLP192 DENSITY ALT 1000FT
2:13 pm
V
77 °F 15 mi 24,000 ft 030° 030° 12 kt METAR CYND 161813Z 03012KT 15SM SCT050TCU BKN240 25/14 A3010 RMK TCU4CI3 SLP196 DENSITY ALT 1200FT
2:00 pm
V
75 °F 15 mi 24,000 ft 050° 050° 13 - 21 kt METAR CYND 161800Z 05013G21KT 010V070 15SM TS VCSH SCT050CB BKN240 24/14 A3011 RMK CB4CI3 SLP197 DENSITY ALT 1200FT
1:44 pm
V
81 °F 15 mi 24,000 ft 100° 100° 6 kt METAR CYND 161744Z 10006KT 15SM TS SCT060CB BKN240 27/15 A3010 RMK CB3CI3 LTGCG E SLP193 DENSITY ALT 1500FT
1:00 pm
V
79 °F 15 mi 25,000 ft 070° 070° 5 kt METAR CYND 161700Z 07005KT 030V100 15SM FEW055 FEW085 BKN250 26/13 A3010 RMK CU2AC1CI5 AC TR SLP195 DENSITY ALT 1400FT
12:00 pm
V
81 °F 15 mi 25,000 ft 070° 070° 7 kt METAR CYND 161600Z 07007KT 350V130 15SM FEW050 FEW080 BKN250 27/13 A3011 RMK CU1AC1CI4 SLP197 DENSITY ALT 1400FT
11:00 am
V
77 °F 15 mi 25,000 ft Var Var 4 kt METAR CYND 161500Z VRB04KT 15SM FEW100 BKN250 25/15 A3011 RMK AC1CI4 SLP200 DENSITY ALT 1300FT
Older data

We and third parties follow your internet behavior on our website with cookies. If you continue, we assume you agree with our cookie policy. Learn more